Terminal Aerodrome Forecast
Issued by NWS

Home | Current Version | Previous Version | Graphics & Text | Print | Product List | Glossary On
Versions: 1 2 3 4 5 6 7 8 9 10 11 12
359
FTUS45 KGGW 111128
TAFSDY
TAF
KSDY 111128Z 1112/1212 07004KT 1/2SM SN OVC010
     FM111800 02007KT P6SM VCSH OVC008
     FM120000 01005KT P6SM OVC010
     FM120900 02008KT P6SM BKN050
      AMD LTD TO CLD VIS AND WIND=

USA.gov is the U.S. government's official web portal to all federal, state and local government web resources and services.